Lewisburg, West Virginia
Current Conditions -  °F | °C
As of 9:55 PM on Saturday 25 Oct 2014 (Local Time) from KLWB Reporting Station
Clear Clear  
Wind Chill: 58°   Ceiling: Unl
Heat Index: 58°   Visibility: 10mi
Dew Point: 47°   Wind: 6mph
Humidity: 67%   Direction: 240°WSW
Pressure: 29.91"   Gusts: NA
Location:  37.8°N, 80.45°W
Report Text: KLWB 260155Z AUTO 24005KT 10SM CLR 14/08 A2991 RMK AO2 T01430083
Loading
Personal Weather Stations






























Interactive Weather Map
Tropical Storm Tracking
New forecast layout! Learn more

10-Day Weather Forecast

Advertisements
Track Severe Weather on mobile